createdAt,value
2018-07-10T00:00:12.117Z,81.80
2018-07-10T00:03:21.624Z,82.70
2018-07-10T00:06:38.401Z,82.30
2018-07-10T00:09:24.153Z,82.60
2018-07-10T00:11:53.624Z,83.50
2018-07-10T00:14:22.948Z,84.10
2018-07-10T00:16:52.218Z,83.40
2018-07-10T00:19:22.103Z,85.10
2018-07-10T00:21:51.672Z,87.20
2018-07-10T00:24:20.943Z,88.70
2018-07-10T00:26:50.268Z,89.40
2018-07-10T00:29:19.552Z,88.50
2018-07-10T00:31:48.848Z,86.40
2018-07-10T00:34:18.253Z,88.40
2018-07-10T00:36:47.472Z,89.80
2018-07-10T00:39:16.784Z,90.10
2018-07-10T00:41:46.277Z,90.10
2018-07-10T00:44:15.661Z,87.70
2018-07-10T00:46:44.887Z,88.30
2018-07-10T00:49:14.223Z,87.30
2018-07-10T00:51:43.601Z,85.90
2018-07-10T00:54:12.927Z,84.30
2018-07-10T00:56:42.329Z,84.60
2018-07-10T00:59:11.768Z,83.60
2018-07-10T01:01:41.119Z,86.10
2018-07-10T01:04:10.467Z,85.20
2018-07-10T01:06:39.802Z,84.40
2018-07-10T01:09:14.703Z,86.20
2018-07-10T01:11:44.105Z,86.00
2018-07-10T01:14:13.507Z,86.60
2018-07-10T01:16:42.907Z,86.30
2018-07-10T01:19:14.900Z,84.90
2018-07-10T01:21:45.823Z,84.50
2018-07-10T01:24:18.721Z,85.60
2018-07-10T01:26:49.396Z,84.00
2018-07-10T01:29:24.161Z,85.90
2018-07-10T01:31:54.689Z,85.20
2018-07-10T01:34:24.295Z,84.90
2018-07-10T01:36:54.415Z,86.30
2018-07-10T01:39:23.744Z,86.80
2018-07-10T01:41:53.188Z,90.00
2018-07-10T01:44:22.644Z,88.10
2018-07-10T01:46:52.057Z,89.30
2018-07-10T01:49:21.429Z,87.50
2018-07-10T01:51:50.836Z,87.10
2018-07-10T01:54:20.136Z,87.60
2018-07-10T01:56:49.463Z,87.70
2018-07-10T01:59:19.446Z,88.10
2018-07-10T02:01:48.920Z,86.40
2018-07-10T02:04:18.352Z,85.10
2018-07-10T02:06:47.681Z,87.40
2018-07-10T02:09:17.005Z,88.80
2018-07-10T02:11:46.354Z,90.00
2018-07-10T02:14:15.661Z,90.20
2018-07-10T02:16:45.132Z,90.10
2018-07-10T02:19:14.600Z,90.30
2018-07-10T02:21:44.169Z,90.50
2018-07-10T02:24:17.339Z,91.10
2018-07-10T02:26:46.761Z,91.60
2018-07-10T02:29:16.146Z,91.50
2018-07-10T02:31:45.573Z,91.40
2018-07-10T02:34:14.903Z,91.60
2018-07-10T02:36:44.150Z,91.90
2018-07-10T02:39:13.580Z,91.60
2018-07-10T02:41:43.188Z,91.40
2018-07-10T02:44:12.954Z,90.80
2018-07-10T02:49:19.967Z,91.80
2018-07-10T02:51:57.624Z,92.10
2018-07-10T02:54:31.021Z,92.30
2018-07-10T02:57:00.420Z,92.10
2018-07-10T02:59:36.856Z,93.80
2018-07-10T03:02:08.216Z,94.20
2018-07-10T03:04:40.069Z,94.70
2018-07-10T03:07:11.905Z,95.20
2018-07-10T03:09:41.330Z,95.80
2018-07-10T03:12:10.865Z,95.60
2018-07-10T03:14:40.312Z,95.10
2018-07-10T03:17:10.288Z,94.70
2018-07-10T03:19:39.804Z,93.90
2018-07-10T03:22:09.294Z,93.80
2018-07-10T03:24:38.833Z,93.20
2018-07-10T03:27:08.250Z,93.60
2018-07-10T03:29:37.584Z,93.70
2018-07-10T03:32:07.008Z,93.70
2018-07-10T03:34:36.769Z,93.80
2018-07-10T03:37:06.064Z,94.10
2018-07-10T03:39:37.208Z,94.10
2018-07-10T03:42:06.712Z,94.00
2018-07-10T03:44:36.185Z,93.90
2018-07-10T03:47:05.724Z,93.70
2018-07-10T03:49:35.169Z,93.50
2018-07-10T03:52:04.841Z,93.40
2018-07-10T03:54:35.363Z,93.60
2018-07-10T03:57:05.927Z,94.10
2018-07-10T03:59:42.089Z,94.10
2018-07-10T04:02:11.561Z,94.50
2018-07-10T04:04:40.966Z,95.30
2018-07-10T04:07:10.470Z,96.30
2018-07-10T04:09:40.643Z,96.60
2018-07-10T04:12:10.095Z,96.60
2018-07-10T04:14:39.528Z,96.00
2018-07-10T04:17:08.935Z,95.60
2018-07-10T04:19:38.332Z,95.20
2018-07-10T04:22:07.943Z,95.20
2018-07-10T04:24:40.487Z,95.30
2018-07-10T04:27:52.284Z,95.50
2018-07-10T04:30:58.588Z,95.70
2018-07-10T04:33:27.987Z,96.10
2018-07-10T04:35:57.391Z,96.30
2018-07-10T04:38:27.848Z,96.10
2018-07-10T04:41:05.823Z,96.20
2018-07-10T04:43:35.223Z,96.10
2018-07-10T04:46:04.492Z,97.00
2018-07-10T04:48:43.216Z,96.80
2018-07-10T04:52:17.776Z,96.80
2018-07-10T04:54:53.324Z,96.60
2018-07-10T04:57:27.713Z,96.30
2018-07-10T04:59:57.840Z,96.80
2018-07-10T05:02:27.454Z,97.10
2018-07-10T05:04:56.874Z,96.40
2018-07-10T05:07:26.278Z,95.90
2018-07-10T05:09:55.748Z,96.00
2018-07-10T05:12:25.258Z,95.60
2018-07-10T05:14:54.965Z,95.70
2018-07-10T05:17:24.400Z,95.60
2018-07-10T05:19:54.793Z,96.00
2018-07-10T05:22:24.633Z,96.00
2018-07-10T05:24:54.060Z,96.30
2018-07-10T05:27:23.579Z,96.30
2018-07-10T05:29:53.027Z,95.90
2018-07-10T05:32:22.628Z,95.60
2018-07-10T05:34:52.053Z,93.90
2018-07-10T05:37:30.045Z,93.70
2018-07-10T05:40:01.614Z,92.90
2018-07-10T05:42:31.143Z,92.70
2018-07-10T05:45:00.660Z,92.60
2018-07-10T05:47:31.469Z,92.40
2018-07-10T05:50:07.648Z,92.30
2018-07-10T05:52:38.300Z,92.10
2018-07-10T05:55:07.700Z,91.80
2018-07-10T05:57:37.488Z,92.10
2018-07-10T06:00:06.816Z,92.60
2018-07-10T06:02:36.356Z,91.60
2018-07-10T06:05:05.817Z,92.10
2018-07-10T06:07:35.291Z,92.80
2018-07-10T06:10:04.727Z,92.70
2018-07-10T06:12:34.020Z,92.10
2018-07-10T06:15:03.472Z,92.10
2018-07-10T06:17:33.239Z,92.10
2018-07-10T06:20:04.099Z,91.50
2018-07-10T06:22:34.284Z,91.20
2018-07-10T06:25:07.111Z,90.80
2018-07-10T06:28:22.152Z,90.90
2018-07-10T06:30:52.254Z,90.30
2018-07-10T06:33:25.919Z,90.30
2018-07-10T06:36:01.395Z,90.80
2018-07-10T06:38:30.839Z,90.30
2018-07-10T06:41:00.572Z,90.30
2018-07-10T06:43:48.930Z,89.80
2018-07-10T06:46:19.837Z,88.50
2018-07-10T06:51:20.188Z,89.10
2018-07-10T06:53:53.460Z,89.00
2018-07-10T06:58:57.622Z,88.30
2018-07-10T07:01:27.312Z,87.10
2018-07-10T07:04:02.413Z,86.80
2018-07-10T07:06:32.340Z,87.60
2018-07-10T07:09:01.903Z,85.80
2018-07-10T07:11:31.401Z,86.80
2018-07-10T07:14:00.793Z,86.20
2018-07-10T07:16:30.241Z,88.20
2018-07-10T07:18:59.757Z,86.70
2018-07-10T07:21:29.247Z,86.30
2018-07-10T07:23:58.756Z,87.20
2018-07-10T07:26:28.445Z,86.30
2018-07-10T07:28:58.040Z,85.50
2018-07-10T07:31:27.500Z,86.40
2018-07-10T07:33:56.804Z,85.60
2018-07-10T07:36:26.210Z,85.90
2018-07-10T07:38:55.648Z,85.50
2018-07-10T07:41:25.188Z,85.90
2018-07-10T07:43:54.553Z,84.50
2018-07-10T07:46:23.998Z,84.30
2018-07-10T07:48:53.492Z,85.20
2018-07-10T07:51:23.030Z,85.50
2018-07-10T07:53:52.604Z,86.00
2018-07-10T07:56:22.188Z,85.20
2018-07-10T07:58:51.751Z,86.30
2018-07-10T08:01:21.460Z,85.60
2018-07-10T08:03:51.011Z,84.90
2018-07-10T08:06:20.668Z,83.60
2018-07-10T08:08:50.400Z,84.30
2018-07-10T08:11:20.252Z,85.40
2018-07-10T08:13:49.988Z,84.60
2018-07-10T08:16:24.589Z,83.50
2018-07-10T08:21:23.332Z,83.80
2018-07-10T08:23:52.761Z,83.30
2018-07-10T08:26:22.241Z,81.40
2018-07-10T08:28:51.852Z,82.20
2018-07-10T08:31:21.543Z,82.20
2018-07-10T08:33:51.214Z,82.20
2018-07-10T08:36:20.723Z,81.50
2018-07-10T08:38:50.319Z,78.60
2018-07-10T08:41:24.844Z,81.30
2018-07-10T08:43:55.567Z,82.50
2018-07-10T08:46:30.662Z,80.10
2018-07-10T08:49:00.276Z,79.10
2018-07-10T08:51:30.100Z,78.30
2018-07-10T08:53:59.699Z,76.70
2018-07-10T08:56:29.208Z,80.20
2018-07-10T08:59:00.148Z,78.40
2018-07-10T09:01:30.549Z,77.80
2018-07-10T09:04:00.120Z,74.50
2018-07-10T09:06:29.635Z,77.70
2018-07-10T09:08:59.033Z,77.70
2018-07-10T09:11:28.657Z,74.30
2018-07-10T09:13:58.170Z,73.30
2018-07-10T09:16:27.720Z,76.00
2018-07-10T09:18:58.688Z,75.80
2018-07-10T09:21:28.320Z,75.20
2018-07-10T09:23:58.353Z,74.10
2018-07-10T09:26:27.849Z,73.10
2018-07-10T09:28:57.910Z,71.80
2018-07-10T09:31:27.576Z,69.60
2018-07-10T09:33:57.064Z,69.90
2018-07-10T09:36:26.626Z,69.80
2018-07-10T09:38:56.241Z,66.70
2018-07-10T09:41:26.070Z,71.00
2018-07-10T09:43:56.396Z,65.90
2018-07-10T09:46:28.996Z,68.10
2018-07-10T09:48:59.260Z,63.70
2018-07-10T09:51:28.925Z,71.50
2018-07-10T09:53:58.380Z,67.70
2018-07-10T09:56:27.880Z,64.20
2018-07-10T09:58:57.983Z,65.90
2018-07-10T10:01:34.385Z,62.90
2018-07-10T10:04:04.867Z,63.60
2018-07-10T10:06:34.994Z,62.30
2018-07-10T10:09:05.410Z,63.50
2018-07-10T10:11:34.917Z,66.00
2018-07-10T10:14:04.344Z,63.50
2018-07-10T10:16:33.821Z,63.00
2018-07-10T10:19:04.416Z,66.40
2018-07-10T10:21:34.112Z,62.50
2018-07-10T10:26:32.512Z,63.90
2018-07-10T10:31:31.049Z,67.40
2018-07-10T10:34:00.441Z,64.20
2018-07-10T10:36:29.970Z,61.30
2018-07-10T10:38:59.509Z,60.60
2018-07-10T10:41:29.942Z,62.10
2018-07-10T10:43:59.571Z,65.90
2018-07-10T10:46:29.156Z,59.10
2018-07-10T10:48:58.762Z,59.60
2018-07-10T10:51:28.464Z,61.30
2018-07-10T10:53:58.079Z,61.30
2018-07-10T10:56:28.038Z,59.60
2018-07-10T10:58:59.026Z,59.00
2018-07-10T11:01:29.362Z,62.10
2018-07-10T11:03:58.968Z,57.40
2018-07-10T11:06:29.472Z,58.20
2018-07-10T11:08:59.389Z,58.70
2018-07-10T11:11:31.056Z,58.10
2018-07-10T11:14:02.124Z,57.70
2018-07-10T11:19:18.848Z,58.30
2018-07-10T11:22:03.101Z,59.60
2018-07-10T11:24:51.465Z,61.70
2018-07-10T11:28:28.903Z,57.90
2018-07-10T11:30:58.547Z,58.90
2018-07-10T11:33:28.020Z,55.10
2018-07-10T11:35:57.729Z,54.90
2018-07-10T11:38:27.228Z,54.30
2018-07-10T11:40:56.830Z,55.10
2018-07-10T11:43:26.233Z,54.90
2018-07-10T11:45:55.789Z,54.80
2018-07-10T11:48:25.346Z,55.50
2018-07-10T11:50:54.824Z,56.40
2018-07-10T11:53:24.402Z,57.70
2018-07-10T11:55:53.807Z,52.10
2018-07-10T11:58:23.227Z,52.10
2018-07-10T12:00:52.783Z,49.70
2018-07-10T12:03:22.379Z,54.30
2018-07-10T12:05:52.900Z,53.00
2018-07-10T12:08:22.436Z,55.10
2018-07-10T12:11:02.511Z,55.00
2018-07-10T12:13:31.932Z,54.90
2018-07-10T12:16:01.378Z,55.30
2018-07-10T12:18:31.304Z,58.10
2018-07-10T12:21:00.907Z,54.40
2018-07-10T12:23:30.613Z,54.30
2018-07-10T12:26:00.165Z,51.40
2018-07-10T12:28:29.654Z,49.30
2018-07-10T12:30:59.337Z,50.30
2018-07-10T12:33:28.831Z,51.30
2018-07-10T12:35:58.417Z,48.20
2018-07-10T12:38:27.878Z,49.20
2018-07-10T12:40:57.727Z,47.80
2018-07-10T12:43:27.368Z,47.30
2018-07-10T12:45:56.943Z,47.50
2018-07-10T12:48:26.452Z,47.80
2018-07-10T12:50:56.402Z,49.40
2018-07-10T12:53:27.025Z,52.90
2018-07-10T12:55:56.885Z,52.30
2018-07-10T13:00:56.739Z,47.20
2018-07-10T13:03:26.523Z,47.10
2018-07-10T13:05:57.103Z,48.70
2018-07-10T13:08:26.619Z,47.90
2018-07-10T13:10:56.317Z,48.10
2018-07-10T13:13:25.767Z,46.90
2018-07-10T13:15:55.276Z,48.00
2018-07-10T13:18:27.582Z,47.40
2018-07-10T13:20:57.091Z,46.30
2018-07-10T13:23:26.527Z,44.30
2018-07-10T13:25:55.954Z,44.80
2018-07-10T13:28:25.359Z,44.20
2018-07-10T13:30:54.860Z,45.10
2018-07-10T13:33:24.503Z,44.60
2018-07-10T13:35:54.073Z,43.40
2018-07-10T13:38:24.620Z,43.10
2018-07-10T13:43:24.372Z,41.40
2018-07-10T13:45:53.876Z,42.40
2018-07-10T13:48:23.316Z,42.40
2018-07-10T13:50:52.788Z,42.40
2018-07-10T13:53:22.647Z,42.20
2018-07-10T13:55:52.251Z,42.50
2018-07-10T13:58:30.776Z,40.70
2018-07-10T14:01:07.803Z,41.20
2018-07-10T14:03:37.691Z,40.90
2018-07-10T14:06:07.576Z,39.60
2018-07-10T14:08:37.164Z,40.00
2018-07-10T14:11:06.727Z,38.00
2018-07-10T14:13:36.175Z,39.30
2018-07-10T14:16:05.638Z,41.80
2018-07-10T14:18:35.202Z,40.70
2018-07-10T14:21:08.693Z,39.30
2018-07-10T14:23:38.597Z,38.50
2018-07-10T14:26:08.083Z,41.00
2018-07-10T14:28:37.598Z,39.90
2018-07-10T14:31:07.030Z,39.00
2018-07-10T14:33:36.613Z,38.00
2018-07-10T14:36:06.036Z,39.00
2018-07-10T14:38:35.556Z,39.30
2018-07-10T14:41:07.737Z,39.40
2018-07-10T14:43:42.057Z,38.00
2018-07-10T14:46:28.070Z,39.60
2018-07-10T14:48:59.685Z,37.90
2018-07-10T14:51:42.992Z,39.20
2018-07-10T14:54:13.428Z,38.10
2018-07-10T14:56:43.159Z,36.90
2018-07-10T14:59:12.766Z,38.00
2018-07-10T15:01:42.767Z,39.30
2018-07-10T15:04:12.112Z,38.30
2018-07-10T15:06:41.723Z,36.30
2018-07-10T15:09:11.133Z,38.10
2018-07-10T15:11:43.192Z,35.90
2018-07-10T15:14:12.988Z,36.60
2018-07-10T15:16:47.484Z,34.80
2018-07-10T15:19:17.672Z,35.00
2018-07-10T15:21:47.228Z,36.30
2018-07-10T15:24:17.097Z,34.30
2018-07-10T15:26:46.595Z,34.70
2018-07-10T15:29:21.277Z,34.70
2018-07-10T15:34:21.014Z,35.10
2018-07-10T15:36:50.419Z,33.50
2018-07-10T15:39:21.244Z,33.50
2018-07-10T15:41:52.646Z,32.80
2018-07-10T15:44:22.074Z,34.10
2018-07-10T15:46:51.716Z,34.10
2018-07-10T15:49:21.072Z,34.90
2018-07-10T15:51:50.543Z,34.60
2018-07-10T15:54:20.069Z,33.30
2018-07-10T15:56:49.607Z,32.70
2018-07-10T15:59:19.078Z,34.90
2018-07-10T16:01:48.599Z,35.80
2018-07-10T16:04:18.101Z,36.00
2018-07-10T16:06:47.676Z,35.80
2018-07-10T16:09:19.468Z,34.80
2018-07-10T16:11:55.039Z,34.40
2018-07-10T16:14:25.058Z,34.40
2018-07-10T16:16:54.628Z,34.60
2018-07-10T16:19:34.782Z,34.50
2018-07-10T16:22:12.699Z,35.40
2018-07-10T16:24:48.146Z,35.80
2018-07-10T16:27:21.488Z,36.20
2018-07-10T16:32:19.896Z,35.70
2018-07-10T16:34:49.440Z,38.30
2018-07-10T16:37:19.192Z,38.70
2018-07-10T16:39:48.711Z,40.10
2018-07-10T16:42:24.950Z,38.30
2018-07-10T16:44:54.528Z,42.20
2018-07-10T16:47:31.999Z,42.30
2018-07-10T16:50:08.127Z,42.50
2018-07-10T16:52:57.592Z,43.90
2018-07-10T16:57:57.216Z,44.40
2018-07-10T17:00:28.286Z,43.80
2018-07-10T17:02:59.231Z,45.20
2018-07-10T17:05:28.855Z,46.90
2018-07-10T17:07:58.496Z,45.90
2018-07-10T17:10:28.071Z,47.90
2018-07-10T17:13:01.892Z,48.10
2018-07-10T17:15:31.387Z,48.70
2018-07-10T17:18:00.916Z,47.60
2018-07-10T17:20:30.493Z,47.80
2018-07-10T17:23:01.185Z,49.00
2018-07-10T17:25:31.088Z,49.90
2018-07-10T17:30:29.469Z,50.90
2018-07-10T17:32:59.006Z,50.60
2018-07-10T17:35:28.611Z,49.60
2018-07-10T17:37:58.101Z,51.10
2018-07-10T17:42:56.711Z,51.70
2018-07-10T17:45:26.285Z,50.80
2018-07-10T17:47:55.747Z,53.10
2018-07-10T17:50:25.217Z,54.70
2018-07-10T17:55:23.858Z,53.60
2018-07-10T17:57:59.141Z,57.40
2018-07-10T18:00:28.565Z,54.20
2018-07-10T18:02:58.052Z,54.50
2018-07-10T18:05:27.462Z,56.60
2018-07-10T18:07:57.032Z,56.80
2018-07-10T18:10:26.918Z,53.70
2018-07-10T18:12:56.614Z,54.20
2018-07-10T18:15:26.469Z,54.80
2018-07-10T18:17:56.016Z,56.90
2018-07-10T18:20:26.115Z,57.70
2018-07-10T18:22:55.637Z,58.40
2018-07-10T18:25:24.946Z,60.00
2018-07-10T18:27:54.427Z,60.80
2018-07-10T18:30:24.248Z,62.10
2018-07-10T18:32:54.066Z,59.30
2018-07-10T18:35:23.904Z,59.30
2018-07-10T18:40:22.315Z,59.30
2018-07-10T18:42:51.996Z,61.00
2018-07-10T18:45:21.503Z,61.50
2018-07-10T18:50:20.211Z,58.50
2018-07-10T18:52:51.961Z,60.60
2018-07-10T18:55:21.486Z,63.90
2018-07-10T18:58:29.189Z,65.60
2018-07-10T19:01:06.009Z,67.40
2018-07-10T19:03:36.932Z,67.00
2018-07-10T19:06:14.972Z,67.30
2018-07-10T19:08:46.352Z,66.70
2018-07-10T19:11:24.878Z,64.10
2018-07-10T19:13:54.540Z,66.50
2018-07-10T19:16:24.737Z,66.30
2018-07-10T19:18:55.683Z,63.10
2018-07-10T19:21:29.221Z,63.30
2018-07-10T19:24:04.980Z,61.60
2018-07-10T19:26:36.008Z,65.20
2018-07-10T19:29:11.900Z,64.40
2018-07-10T19:31:41.517Z,65.50
2018-07-10T19:34:11.049Z,62.70
2018-07-10T19:36:40.556Z,62.40
2018-07-10T19:39:09.981Z,63.90
2018-07-10T19:41:39.591Z,64.30
2018-07-10T19:44:09.065Z,66.10
2018-07-10T19:46:38.648Z,64.90
2018-07-10T19:49:08.667Z,65.20
2018-07-10T19:51:40.084Z,65.90
2018-07-10T19:56:40.301Z,65.40
2018-07-10T19:59:12.013Z,64.50
2018-07-10T20:01:50.620Z,64.20
2018-07-10T20:04:28.653Z,63.60
2018-07-10T20:08:01.371Z,64.30
2018-07-10T20:10:37.856Z,64.40
2018-07-10T20:13:11.819Z,65.90
2018-07-10T20:16:02.522Z,64.60
2018-07-10T20:20:52.929Z,65.10
2018-07-10T20:23:35.134Z,65.30
2018-07-10T20:26:09.861Z,64.30
2018-07-10T20:28:57.902Z,64.90
2018-07-10T20:31:44.104Z,63.70
2018-07-10T20:35:27.394Z,65.90
2018-07-10T20:37:57.727Z,66.40
2018-07-10T20:40:37.100Z,67.80
2018-07-10T20:43:12.028Z,68.00
2018-07-10T20:45:50.155Z,68.60
2018-07-10T20:48:43.708Z,68.40
2018-07-10T20:51:14.464Z,67.90
2018-07-10T20:53:59.501Z,68.50
2018-07-10T20:56:43.832Z,70.20
2018-07-10T20:59:20.942Z,66.80
2018-07-10T21:01:53.491Z,67.80
2018-07-10T21:04:36.548Z,69.30
2018-07-10T21:07:12.811Z,71.20
2018-07-10T21:09:56.653Z,72.50
2018-07-10T21:14:05.873Z,69.10
2018-07-10T21:16:45.645Z,68.80
2018-07-10T21:19:24.562Z,74.30
2018-07-10T21:22:17.528Z,73.90
2018-07-10T21:24:51.606Z,70.90
2018-07-10T21:27:38.883Z,71.20
2018-07-10T21:30:24.157Z,73.70
2018-07-10T21:33:11.073Z,76.90
2018-07-10T21:35:52.505Z,78.80
2018-07-10T21:38:57.983Z,78.70
2018-07-10T21:41:38.952Z,78.10
2018-07-10T21:44:29.780Z,77.10
2018-07-10T21:47:05.408Z,78.90
2018-07-10T21:49:40.989Z,79.80
2018-07-10T21:52:10.424Z,80.30
2018-07-10T21:54:39.679Z,80.60
2018-07-10T21:57:10.869Z,80.40
2018-07-10T21:59:42.424Z,81.00
2018-07-10T22:02:12.132Z,81.10
2018-07-10T22:04:41.536Z,81.80
2018-07-10T22:07:14.552Z,83.00
2018-07-10T22:09:44.900Z,82.50
2018-07-10T22:12:18.064Z,84.70
2018-07-10T22:14:47.544Z,85.90
2018-07-10T22:17:20.864Z,87.80
2018-07-10T22:19:52.319Z,88.20
2018-07-10T22:22:29.915Z,88.40
2018-07-10T22:25:04.481Z,87.40
2018-07-10T22:27:34.482Z,86.20
2018-07-10T22:30:09.289Z,86.80
2018-07-10T22:32:45.785Z,84.20
2018-07-10T22:35:16.496Z,84.20
2018-07-10T22:37:46.300Z,85.30
2018-07-10T22:40:17.445Z,83.90
2018-07-10T22:42:47.276Z,82.70
2018-07-10T22:45:18.319Z,84.00
2018-07-10T22:47:48.780Z,83.50
2018-07-10T22:50:23.626Z,83.30
2018-07-10T22:52:58.492Z,83.70
2018-07-10T22:55:30.784Z,83.10
2018-07-10T22:58:04.385Z,84.60
2018-07-10T23:00:36.216Z,86.60
2018-07-10T23:03:17.903Z,86.60
2018-07-10T23:05:48.951Z,87.30
2018-07-10T23:08:20.729Z,87.80
2018-07-10T23:10:50.756Z,86.80
2018-07-10T23:13:20.639Z,87.50
2018-07-10T23:15:50.959Z,85.60
2018-07-10T23:18:20.904Z,85.90
2018-07-10T23:20:50.891Z,85.50
2018-07-10T23:23:21.633Z,85.70
2018-07-10T23:25:51.337Z,84.60
2018-07-10T23:28:21.557Z,84.80
2018-07-10T23:30:51.169Z,85.60
2018-07-10T23:33:22.029Z,85.30
2018-07-10T23:35:57.521Z,85.30
2018-07-10T23:38:40.580Z,88.30
2018-07-10T23:41:25.753Z,87.10
2018-07-10T23:43:55.152Z,87.90
2018-07-10T23:46:30.823Z,88.70
2018-07-10T23:49:09.309Z,89.30
2018-07-10T23:51:49.471Z,90.00
2018-07-10T23:54:19.411Z,90.30
2018-07-10T23:56:49.091Z,90.40
2018-07-10T23:59:18.804Z,90.00
